createdAt,value
2018-12-05T00:00:40.300Z,101314.70
2018-12-05T00:03:07.060Z,101314.61
2018-12-05T00:05:33.848Z,101311.05
2018-12-05T00:08:00.626Z,101312.70
2018-12-05T00:10:27.405Z,101312.78
2018-12-05T00:12:54.172Z,101308.28
2018-12-05T00:15:20.949Z,101309.30
2018-12-05T00:17:47.709Z,101307.72
2018-12-05T00:20:14.505Z,101305.40
2018-12-05T00:22:41.265Z,101301.65
2018-12-05T00:25:08.065Z,101312.59
2018-12-05T00:27:34.833Z,101317.67
2018-12-05T00:30:01.599Z,101318.28
2018-12-05T00:32:28.381Z,101319.59
2018-12-05T00:34:55.144Z,101325.92
2018-12-05T00:37:21.941Z,101326.27
2018-12-05T00:39:48.710Z,101332.46
2018-12-05T00:42:15.512Z,101318.20
2018-12-05T00:44:42.289Z,101327.97
2018-12-05T00:47:09.116Z,101332.46
2018-12-05T00:49:35.871Z,101326.56
2018-12-05T00:52:02.648Z,101327.97
2018-12-05T00:54:29.413Z,101326.27
2018-12-05T00:56:56.193Z,101329.14
2018-12-05T00:59:22.965Z,101330.62
2018-12-05T01:01:49.753Z,101328.37
2018-12-05T01:04:16.528Z,101326.30
2018-12-05T01:06:43.313Z,101334.41
2018-12-05T01:09:12.254Z,101332.08
2018-12-05T01:11:39.336Z,101325.55
2018-12-05T01:14:06.103Z,101326.59
2018-12-05T01:16:32.880Z,101315.26
2018-12-05T01:18:59.640Z,101310.98
2018-12-05T01:21:26.450Z,101315.17
2018-12-05T01:23:53.213Z,101321.61
2018-12-05T01:26:19.992Z,101316.92
2018-12-05T01:28:46.750Z,101300.27
2018-12-05T01:31:13.573Z,101302.76
2018-12-05T01:33:40.331Z,101302.30
2018-12-05T01:36:07.116Z,101292.99
2018-12-05T01:38:33.896Z,101297.55
2018-12-05T01:41:00.661Z,101302.33
2018-12-05T01:43:46.310Z,101301.20
2018-12-05T01:46:13.096Z,101305.34
2018-12-05T01:48:39.864Z,101310.88
2018-12-05T01:51:06.640Z,101306.94
2018-12-05T01:53:33.425Z,101300.96
2018-12-05T01:56:00.196Z,101296.10
2018-12-05T01:58:26.989Z,101295.43
2018-12-05T02:00:53.737Z,101300.50
2018-12-05T02:03:20.529Z,101301.03
2018-12-05T02:05:47.289Z,101309.44
2018-12-05T02:08:14.073Z,101305.58
2018-12-05T02:10:40.845Z,101306.42
2018-12-05T02:13:07.628Z,101304.54
2018-12-05T02:15:34.388Z,101308.23
2018-12-05T02:18:01.165Z,101310.56
2018-12-05T02:20:27.942Z,101305.04
2018-12-05T02:22:54.717Z,101296.11
2018-12-05T02:25:21.563Z,101285.84
2018-12-05T02:27:48.256Z,101280.16
2018-12-05T02:30:15.010Z,101278.94
2018-12-05T02:32:41.781Z,101280.59
2018-12-05T02:35:08.545Z,101278.94
2018-12-05T02:37:35.328Z,101279.70
2018-12-05T02:40:02.132Z,101281.88
2018-12-05T02:42:28.913Z,101281.13
2018-12-05T02:44:57.385Z,101285.44
2018-12-05T02:47:22.448Z,101280.59
2018-12-05T02:49:49.209Z,101280.66
2018-12-05T02:52:15.982Z,101291.73
2018-12-05T02:54:42.731Z,101290.45
2018-12-05T02:57:09.504Z,101293.09
2018-12-05T02:59:36.260Z,101291.05
2018-12-05T03:02:03.019Z,101290.06
2018-12-05T03:04:29.796Z,101289.98
2018-12-05T03:06:56.565Z,101292.17
2018-12-05T03:09:23.356Z,101300.42
2018-12-05T03:11:50.136Z,101303.84
2018-12-05T03:14:16.913Z,101300.38
2018-12-05T03:16:43.709Z,101302.40
2018-12-05T03:19:10.474Z,101300.66
2018-12-05T03:21:37.248Z,101298.17
2018-12-05T03:24:04.096Z,101292.70
2018-12-05T03:26:30.849Z,101284.98
2018-12-05T03:28:57.633Z,101275.51
2018-12-05T03:31:24.402Z,101268.23
2018-12-05T03:33:51.170Z,101259.92
2018-12-05T03:36:18.001Z,101261.59
2018-12-05T03:38:44.800Z,101258.19
2018-12-05T03:41:11.557Z,101254.45
2018-12-05T03:43:38.341Z,101250.46
2018-12-05T03:46:05.104Z,101246.47
2018-12-05T03:48:31.877Z,101239.42
2018-12-05T03:50:58.665Z,101237.50
2018-12-05T03:53:25.448Z,101246.77
2018-12-05T03:55:52.220Z,101251.78
2018-12-05T03:58:19.013Z,101256.91
2018-12-05T04:00:45.780Z,101247.09
2018-12-05T04:03:12.603Z,101254.16
2018-12-05T04:05:39.363Z,101251.94
2018-12-05T04:08:06.141Z,101258.58
2018-12-05T04:10:33.095Z,101250.75
2018-12-05T04:13:00.263Z,101254.95
2018-12-05T04:15:27.033Z,101264.05
2018-12-05T04:17:53.805Z,101268.06
2018-12-05T04:20:20.584Z,101261.14
2018-12-05T04:22:47.357Z,101264.34
2018-12-05T04:25:14.122Z,101267.78
2018-12-05T04:27:40.885Z,101260.77
2018-12-05T04:30:07.669Z,101258.66
2018-12-05T04:32:34.425Z,101266.00
2018-12-05T04:35:01.189Z,101263.33
2018-12-05T04:37:27.958Z,101262.78
2018-12-05T04:39:54.757Z,101259.75
2018-12-05T04:42:21.516Z,101265.73
2018-12-05T04:44:48.307Z,101271.92
2018-12-05T04:47:15.085Z,101268.58
2018-12-05T04:49:41.860Z,101265.42
2018-12-05T04:52:08.619Z,101261.67
2018-12-05T04:54:35.382Z,101267.79
2018-12-05T04:57:02.165Z,101268.86
2018-12-05T04:59:28.945Z,101274.94
2018-12-05T05:01:55.712Z,101278.73
2018-12-05T05:04:22.502Z,101278.80
2018-12-05T05:06:49.263Z,101280.09
2018-12-05T05:09:16.037Z,101275.55
2018-12-05T05:11:42.827Z,101289.53
2018-12-05T05:14:09.692Z,101287.47
2018-12-05T05:16:36.440Z,101288.30
2018-12-05T05:19:03.225Z,101288.67
2018-12-05T05:21:30.105Z,101287.18
2018-12-05T05:23:56.889Z,101290.95
2018-12-05T05:26:23.651Z,101293.48
2018-12-05T05:28:50.402Z,101290.53
2018-12-05T05:31:17.173Z,101292.03
2018-12-05T05:33:43.933Z,101291.58
2018-12-05T05:36:10.717Z,101286.59
2018-12-05T05:38:37.493Z,101276.58
2018-12-05T05:41:04.276Z,101276.64
2018-12-05T05:43:31.040Z,101277.47
2018-12-05T05:45:57.820Z,101285.75
2018-12-05T05:48:24.570Z,101289.91
2018-12-05T05:50:51.351Z,101293.31
2018-12-05T05:53:18.117Z,101289.23
2018-12-05T05:55:44.905Z,101293.84
2018-12-05T05:58:11.680Z,101291.50
2018-12-05T06:00:38.497Z,101281.16
2018-12-05T06:03:05.258Z,101288.38
2018-12-05T06:05:32.052Z,101294.23
2018-12-05T06:07:58.869Z,101288.09
2018-12-05T06:10:25.661Z,101287.31
2018-12-05T06:12:52.418Z,101292.45
2018-12-05T06:15:19.201Z,101295.27
2018-12-05T06:17:45.972Z,101294.13
2018-12-05T06:20:12.762Z,101301.92
2018-12-05T06:22:39.509Z,101293.08
2018-12-05T06:25:06.277Z,101298.77
2018-12-05T06:27:33.118Z,101299.35
2018-12-05T06:29:59.877Z,101292.38
2018-12-05T06:32:26.637Z,101292.45
2018-12-05T06:34:53.429Z,101284.06
2018-12-05T06:37:20.193Z,101291.88
2018-12-05T06:39:46.988Z,101296.03
2018-12-05T06:42:13.736Z,101291.00
2018-12-05T06:44:40.529Z,101284.73
2018-12-05T06:47:07.293Z,101294.03
2018-12-05T06:49:34.092Z,101298.06
2018-12-05T06:52:00.851Z,101311.23
2018-12-05T06:54:27.610Z,101302.67
2018-12-05T06:56:54.383Z,101295.41
2018-12-05T06:59:21.157Z,101284.23
2018-12-05T07:01:47.936Z,101281.73
2018-12-05T07:04:14.716Z,101280.61
2018-12-05T07:06:41.489Z,101282.57
2018-12-05T07:09:08.481Z,101282.73
2018-12-05T07:11:35.250Z,101284.06
2018-12-05T07:14:02.041Z,101279.83
2018-12-05T07:16:28.861Z,101289.48
2018-12-05T07:18:55.620Z,101293.16
2018-12-05T07:21:22.489Z,101291.84
2018-12-05T07:23:49.265Z,101292.04
2018-12-05T07:26:16.052Z,101289.09
2018-12-05T07:28:42.824Z,101294.87
2018-12-05T07:31:09.601Z,101295.56
2018-12-05T07:33:36.372Z,101292.82
2018-12-05T07:36:03.164Z,101295.13
2018-12-05T07:38:29.929Z,101298.08
2018-12-05T07:40:56.728Z,101303.57
2018-12-05T07:43:23.520Z,101300.79
2018-12-05T07:45:50.352Z,101301.16
2018-12-05T07:48:17.128Z,101302.55
2018-12-05T07:50:43.917Z,101309.06
2018-12-05T07:53:10.684Z,101310.81
2018-12-05T07:55:37.463Z,101308.78
2018-12-05T07:58:04.228Z,101306.08
2018-12-05T08:00:31.008Z,101309.28
2018-12-05T08:02:57.781Z,101305.63
2018-12-05T08:05:24.560Z,101302.97
2018-12-05T08:07:51.312Z,101304.34
2018-12-05T08:10:18.094Z,101308.12
2018-12-05T08:12:44.884Z,101298.30
2018-12-05T08:15:11.649Z,101303.59
2018-12-05T08:17:38.417Z,101299.13
2018-12-05T08:20:05.220Z,101299.77
2018-12-05T08:22:31.997Z,101305.13
2018-12-05T08:24:58.753Z,101305.03
2018-12-05T08:27:25.530Z,101304.39
2018-12-05T08:29:52.297Z,101310.86
2018-12-05T08:32:19.093Z,101313.78
2018-12-05T08:34:45.838Z,101312.98
2018-12-05T08:37:12.624Z,101311.84
2018-12-05T08:39:39.389Z,101310.02
2018-12-05T08:42:06.181Z,101310.59
2018-12-05T08:44:32.953Z,101313.22
2018-12-05T08:46:59.745Z,101311.05
2018-12-05T08:49:26.546Z,101301.72
2018-12-05T08:51:53.327Z,101312.44
2018-12-05T08:54:21.293Z,101305.30
2018-12-05T08:56:46.876Z,101310.09
2018-12-05T08:59:13.658Z,101302.13
2018-12-05T09:01:40.456Z,101303.23
2018-12-05T09:04:07.225Z,101303.13
2018-12-05T09:06:34.068Z,101300.75
2018-12-05T09:09:00.821Z,101309.21
2018-12-05T09:11:27.603Z,101307.84
2018-12-05T09:13:54.372Z,101307.33
2018-12-05T09:16:21.168Z,101309.03
2018-12-05T09:18:47.968Z,101298.79
2018-12-05T09:21:14.746Z,101300.78
2018-12-05T09:23:41.501Z,101301.70
2018-12-05T09:26:08.281Z,101295.63
2018-12-05T09:28:35.049Z,101293.21
2018-12-05T09:31:01.833Z,101296.14
2018-12-05T09:33:28.599Z,101302.33
2018-12-05T09:35:55.383Z,101296.88
2018-12-05T09:38:22.186Z,101297.31
2018-12-05T09:40:48.938Z,101298.14
2018-12-05T09:43:15.737Z,101304.53
2018-12-05T09:45:42.560Z,101297.44
2018-12-05T09:48:09.351Z,101295.31
2018-12-05T09:50:36.126Z,101291.81
2018-12-05T09:53:02.884Z,101284.35
2018-12-05T09:55:29.652Z,101280.76
2018-12-05T09:57:56.445Z,101278.91
2018-12-05T10:00:23.221Z,101279.52
2018-12-05T10:02:50.033Z,101271.38
2018-12-05T10:05:16.809Z,101263.44
2018-12-05T10:07:43.581Z,101263.77
2018-12-05T10:10:10.358Z,101257.97
2018-12-05T10:12:37.140Z,101253.61
2018-12-05T10:15:04.992Z,101251.49
2018-12-05T10:17:31.766Z,101244.43
2018-12-05T10:19:58.609Z,101251.86
2018-12-05T10:22:25.385Z,101253.77
2018-12-05T10:24:52.144Z,101249.06
2018-12-05T10:27:18.929Z,101241.09
2018-12-05T10:29:45.698Z,101235.86
2018-12-05T10:32:12.491Z,101232.95
2018-12-05T10:34:39.249Z,101230.73
2018-12-05T10:37:06.190Z,101226.71
2018-12-05T10:39:32.961Z,101216.46
2018-12-05T10:41:59.759Z,101211.65
2018-12-05T10:44:26.517Z,101206.80
2018-12-05T10:46:53.296Z,101204.84
2018-12-05T10:49:20.054Z,101214.72
2018-12-05T10:51:46.854Z,101213.92
2018-12-05T10:54:13.604Z,101217.05
2018-12-05T10:56:40.388Z,101213.75
2018-12-05T10:59:07.144Z,101215.48
2018-12-05T11:01:39.612Z,101216.00
2018-12-05T11:04:12.101Z,101214.09
2018-12-05T11:06:58.531Z,101215.76
2018-12-05T11:09:31.110Z,101209.69
2018-12-05T11:12:03.719Z,101206.91
2018-12-05T11:14:36.285Z,101209.02
2018-12-05T11:17:08.926Z,101203.45
2018-12-05T11:19:41.473Z,101204.13
2018-12-05T11:22:27.870Z,101210.63
2018-12-05T11:25:02.122Z,101201.63
2018-12-05T11:27:28.979Z,101200.24
2018-12-05T11:29:55.744Z,101195.16
2018-12-05T11:32:22.577Z,101190.27
2018-12-05T11:34:49.384Z,101192.66
2018-12-05T11:37:16.163Z,101191.93
2018-12-05T11:39:42.920Z,101184.86
2018-12-05T11:42:09.693Z,101182.48
2018-12-05T11:44:36.472Z,101174.47
2018-12-05T11:47:03.262Z,101170.62
2018-12-05T11:49:30.132Z,101163.27
2018-12-05T11:51:56.941Z,101161.80
2018-12-05T11:54:23.721Z,101160.50
2018-12-05T11:56:50.608Z,101148.89
2018-12-05T11:59:17.373Z,101149.04
2018-12-05T12:01:44.214Z,101135.22
2018-12-05T12:04:11.013Z,101127.81
2018-12-05T12:06:38.840Z,101117.34
2018-12-05T12:09:08.020Z,101110.98
2018-12-05T12:11:34.916Z,101105.08
2018-12-05T12:14:01.809Z,101104.27
2018-12-05T12:16:28.676Z,101099.57
2018-12-05T12:18:55.454Z,101103.23
2018-12-05T12:21:22.291Z,101099.73
2018-12-05T12:23:49.065Z,101094.95
2018-12-05T12:26:15.841Z,101093.19
2018-12-05T12:28:42.645Z,101090.47
2018-12-05T12:31:09.421Z,101083.98
2018-12-05T12:33:36.421Z,101087.11
2018-12-05T12:36:03.177Z,101077.10
2018-12-05T12:38:29.960Z,101076.27
2018-12-05T12:40:56.817Z,101077.27
2018-12-05T12:43:23.801Z,101077.45
2018-12-05T12:45:50.560Z,101065.36
2018-12-05T12:48:17.341Z,101069.16
2018-12-05T12:50:44.260Z,101063.04
2018-12-05T12:53:11.023Z,101052.30
2018-12-05T12:55:37.853Z,101044.43
2018-12-05T12:58:04.673Z,101046.23
2018-12-05T13:00:31.430Z,101038.80
2018-12-05T13:02:58.233Z,101038.45
2018-12-05T13:05:25.009Z,101028.67
2018-12-05T13:07:51.853Z,101029.36
2018-12-05T13:10:18.657Z,101021.81
2018-12-05T13:12:45.581Z,101013.68
2018-12-05T13:15:12.401Z,101010.77
2018-12-05T13:17:39.201Z,101009.85
2018-12-05T13:20:06.676Z,101003.97
2018-12-05T13:22:33.460Z,101001.59
2018-12-05T13:25:00.394Z,101000.53
2018-12-05T13:27:27.171Z,100990.29
2018-12-05T13:29:53.961Z,100984.12
2018-12-05T13:32:20.736Z,100986.37
2018-12-05T13:34:47.524Z,100980.81
2018-12-05T13:37:14.373Z,100970.89
2018-12-05T13:39:41.172Z,100967.91
2018-12-05T13:42:07.941Z,100962.37
2018-12-05T13:44:34.727Z,100967.32
2018-12-05T13:47:01.669Z,100957.30
2018-12-05T13:49:28.783Z,100951.38
2018-12-05T13:51:55.254Z,100955.77
2018-12-05T13:54:22.082Z,100954.70
2018-12-05T13:56:48.841Z,100956.16
2018-12-05T13:59:15.625Z,100959.45
2018-12-05T14:01:42.409Z,100949.41
2018-12-05T14:04:09.205Z,100948.23
2018-12-05T14:06:35.973Z,100948.17
2018-12-05T14:09:04.214Z,100949.67
2018-12-05T14:11:30.982Z,100954.66
2018-12-05T14:13:57.756Z,100946.51
2018-12-05T14:16:24.509Z,100952.77
2018-12-05T14:18:51.292Z,100944.04
2018-12-05T14:21:18.071Z,100938.37
2018-12-05T14:23:44.844Z,100939.77
2018-12-05T14:26:11.660Z,100936.23
2018-12-05T14:28:38.440Z,100933.62
2018-12-05T14:31:05.202Z,100938.13
2018-12-05T14:33:31.970Z,100934.11
2018-12-05T14:35:58.758Z,100933.52
2018-12-05T14:38:25.504Z,100922.34
2018-12-05T14:40:52.442Z,100927.63
2018-12-05T14:43:19.214Z,100925.41
2018-12-05T14:45:46.081Z,100924.70
2018-12-05T14:48:13.225Z,100918.66
2018-12-05T14:50:40.129Z,100911.85
2018-12-05T14:53:06.918Z,100915.48
2018-12-05T14:55:33.708Z,100903.20
2018-12-05T14:58:00.513Z,100898.27
2018-12-05T15:00:27.292Z,100898.84
2018-12-05T15:02:54.061Z,100893.16
2018-12-05T15:05:20.849Z,100897.64
2018-12-05T15:07:47.654Z,100896.48
2018-12-05T15:10:14.527Z,100902.25
2018-12-05T15:12:42.122Z,100896.78
2018-12-05T15:15:08.897Z,100894.78
2018-12-05T15:17:35.669Z,100892.07
2018-12-05T15:20:02.531Z,100887.83
2018-12-05T15:22:29.354Z,100887.13
2018-12-05T15:24:56.181Z,100893.55
2018-12-05T15:27:23.000Z,100883.55
2018-12-05T15:29:49.789Z,100882.00
2018-12-05T15:32:16.617Z,100879.48
2018-12-05T15:34:43.448Z,100873.23
2018-12-05T15:37:10.229Z,100867.77
2018-12-05T15:39:37.137Z,100862.40
2018-12-05T15:42:03.976Z,100866.57
2018-12-05T15:44:30.765Z,100856.88
2018-12-05T15:46:57.549Z,100857.73
2018-12-05T15:49:24.377Z,100857.05
2018-12-05T15:51:51.189Z,100853.23
2018-12-05T15:54:17.981Z,100852.76
2018-12-05T15:56:44.812Z,100851.04
2018-12-05T15:59:11.633Z,100845.86
2018-12-05T16:01:38.408Z,100842.88
2018-12-05T16:04:05.219Z,100841.78
2018-12-05T16:06:32.001Z,100837.41
2018-12-05T16:08:58.810Z,100840.11
2018-12-05T16:11:25.613Z,100847.52
2018-12-05T16:13:52.713Z,100846.11
2018-12-05T16:16:19.493Z,100852.94
2018-12-05T16:18:46.302Z,100843.11
2018-12-05T16:21:13.081Z,100835.80
2018-12-05T16:23:39.844Z,100832.66
2018-12-05T16:26:10.637Z,100829.49
2018-12-05T16:28:33.449Z,100820.28
2018-12-05T16:31:00.233Z,100823.91
2018-12-05T16:33:27.001Z,100825.09
2018-12-05T16:35:53.777Z,100820.77
2018-12-05T16:38:20.552Z,100820.77
2018-12-05T16:40:47.328Z,100815.16
2018-12-05T16:43:14.092Z,100812.92
2018-12-05T16:45:40.877Z,100817.82
2018-12-05T16:48:07.671Z,100810.58
2018-12-05T16:50:34.457Z,100804.26
2018-12-05T16:53:01.253Z,100797.50
2018-12-05T16:55:28.044Z,100790.30
2018-12-05T16:57:54.827Z,100789.38
2018-12-05T17:00:21.616Z,100788.86
2018-12-05T17:02:48.389Z,100794.09
2018-12-05T17:05:15.161Z,100787.19
2018-12-05T17:07:42.057Z,100782.59
2018-12-05T17:10:08.827Z,100774.50
2018-12-05T17:12:35.617Z,100770.95
2018-12-05T17:15:02.384Z,100759.95
2018-12-05T17:17:29.176Z,100757.60
2018-12-05T17:19:56.002Z,100752.67
2018-12-05T17:22:22.797Z,100760.67
2018-12-05T17:24:49.584Z,100763.75
2018-12-05T17:27:17.770Z,100760.09
2018-12-05T17:29:43.157Z,100760.79
2018-12-05T17:32:09.977Z,100760.34
2018-12-05T17:34:36.746Z,100763.18
2018-12-05T17:37:03.537Z,100762.82
2018-12-05T17:39:30.293Z,100746.78
2018-12-05T17:41:57.208Z,100744.75
2018-12-05T17:44:23.977Z,100739.63
2018-12-05T17:46:50.761Z,100743.23
2018-12-05T17:49:17.536Z,100739.98
2018-12-05T17:51:44.335Z,100729.88
2018-12-05T17:54:14.731Z,100724.38
2018-12-05T17:56:37.889Z,100720.59
2018-12-05T17:59:04.681Z,100717.39
2018-12-05T18:01:31.469Z,100720.48
2018-12-05T18:03:58.242Z,100712.78
2018-12-05T18:06:25.058Z,100714.34
2018-12-05T18:08:51.822Z,100723.52
2018-12-05T18:11:18.689Z,100732.50
2018-12-05T18:13:45.468Z,100736.11
2018-12-05T18:16:12.261Z,100725.20
2018-12-05T18:18:39.048Z,100719.81
2018-12-05T18:21:05.822Z,100725.31
2018-12-05T18:23:32.697Z,100728.47
2018-12-05T18:25:59.464Z,100721.41
2018-12-05T18:28:26.289Z,100692.91
2018-12-05T18:30:53.093Z,100677.18
2018-12-05T18:33:19.889Z,100680.92
2018-12-05T18:35:46.669Z,100674.37
2018-12-05T18:38:13.445Z,100666.57
2018-12-05T18:40:40.245Z,100676.98
2018-12-05T18:43:07.013Z,100678.41
2018-12-05T18:45:33.806Z,100668.41
2018-12-05T18:48:00.588Z,100673.74
2018-12-05T18:50:27.388Z,100677.41
2018-12-05T18:52:54.166Z,100664.70
2018-12-05T18:55:20.961Z,100657.89
2018-12-05T18:57:47.749Z,100655.80
2018-12-05T19:00:14.654Z,100664.20
2018-12-05T19:02:41.420Z,100663.50
2018-12-05T19:05:08.360Z,100644.53
2018-12-05T19:07:35.171Z,100644.83
2018-12-05T19:10:02.189Z,100640.51
2018-12-05T19:12:29.180Z,100652.13
2018-12-05T19:14:56.101Z,100653.35
2018-12-05T19:17:22.931Z,100643.84
2018-12-05T19:19:49.752Z,100637.09
2018-12-05T19:22:16.602Z,100617.54
2018-12-05T19:24:43.694Z,100603.22
2018-12-05T19:27:10.474Z,100597.70
2018-12-05T19:29:37.253Z,100604.97
2018-12-05T19:32:04.059Z,100613.84
2018-12-05T19:34:31.262Z,100618.38
2018-12-05T19:36:58.113Z,100621.64
2018-12-05T19:39:24.880Z,100621.48
2018-12-05T19:41:51.665Z,100627.92
2018-12-05T19:44:18.497Z,100636.08
2018-12-05T19:46:45.348Z,100635.05
2018-12-05T19:49:12.120Z,100639.66
2018-12-05T19:51:38.923Z,100645.47
2018-12-05T19:54:05.721Z,100653.84
2018-12-05T19:56:32.501Z,100647.52
2018-12-05T19:58:59.261Z,100643.64
2018-12-05T20:01:26.045Z,100648.05
2018-12-05T20:03:52.813Z,100639.14
2018-12-05T20:06:19.685Z,100616.27
2018-12-05T20:08:46.453Z,100575.30
2018-12-05T20:11:13.252Z,100553.09
2018-12-05T20:13:40.023Z,100570.56
2018-12-05T20:16:06.797Z,100579.07
2018-12-05T20:18:33.565Z,100573.71
2018-12-05T20:21:00.372Z,100587.66
2018-12-05T20:23:27.253Z,100589.59
2018-12-05T20:25:54.013Z,100595.62
2018-12-05T20:28:20.808Z,100601.17
2018-12-05T20:30:47.589Z,100601.64
2018-12-05T20:33:14.424Z,100604.55
2018-12-05T20:35:41.200Z,100609.84
2018-12-05T20:38:07.984Z,100610.55
2018-12-05T20:40:34.744Z,100609.84
2018-12-05T20:43:01.541Z,100595.81
2018-12-05T20:45:28.300Z,100609.13
2018-12-05T20:47:55.081Z,100607.33
2018-12-05T20:50:21.844Z,100604.78
2018-12-05T20:52:48.632Z,100598.63
2018-12-05T20:55:15.405Z,100583.08
2018-12-05T20:57:42.208Z,100578.87
2018-12-05T21:00:09.053Z,100590.05
2018-12-05T21:02:35.856Z,100587.62
2018-12-05T21:05:02.646Z,100578.45
2018-12-05T21:07:29.420Z,100592.09
2018-12-05T21:09:56.188Z,100593.41
2018-12-05T21:12:22.973Z,100582.69
2018-12-05T21:14:49.728Z,100583.51
2018-12-05T21:17:16.561Z,100583.83
2018-12-05T21:19:43.329Z,100590.48
2018-12-05T21:22:10.125Z,100585.58
2018-12-05T21:24:36.885Z,100585.50
2018-12-05T21:27:03.681Z,100582.18
2018-12-05T21:29:30.446Z,100597.34
2018-12-05T21:31:57.234Z,100594.08
2018-12-05T21:34:24.012Z,100585.27
2018-12-05T21:36:50.813Z,100584.16
2018-12-05T21:39:17.580Z,100579.86
2018-12-05T21:41:44.465Z,100580.84
2018-12-05T21:44:11.230Z,100587.62
2018-12-05T21:46:37.984Z,100585.86
2018-12-05T21:49:04.777Z,100579.80
2018-12-05T21:51:31.533Z,100564.75
2018-12-05T21:53:58.321Z,100566.34
2018-12-05T21:56:25.093Z,100570.11
2018-12-05T21:58:51.883Z,100566.73
2018-12-05T22:01:18.648Z,100573.78
2018-12-05T22:03:45.432Z,100565.20
2018-12-05T22:06:12.200Z,100567.31
2018-12-05T22:08:38.973Z,100571.05
2018-12-05T22:11:05.736Z,100578.41
2018-12-05T22:13:32.532Z,100571.05
2018-12-05T22:15:59.326Z,100569.20
2018-12-05T22:18:26.105Z,100565.87
2018-12-05T22:20:52.876Z,100571.05
2018-12-05T22:23:19.657Z,100564.34
2018-12-05T22:25:46.433Z,100563.52
2018-12-05T22:28:13.223Z,100562.53
2018-12-05T22:30:39.981Z,100561.22
2018-12-05T22:33:06.761Z,100558.02
2018-12-05T22:35:33.524Z,100559.05
2018-12-05T22:38:00.310Z,100559.76
2018-12-05T22:40:27.093Z,100563.52
2018-12-05T22:42:53.867Z,100555.22
2018-12-05T22:45:20.628Z,100555.55
2018-12-05T22:47:47.409Z,100565.44
2018-12-05T22:50:14.193Z,100562.52
2018-12-05T22:52:43.789Z,100564.02
2018-12-05T22:55:10.649Z,100554.97
2018-12-05T22:57:37.437Z,100557.84
2018-12-05T23:00:06.006Z,100562.47
2018-12-05T23:02:32.785Z,100556.23
2018-12-05T23:04:59.548Z,100551.23
2018-12-05T23:07:26.309Z,100546.33
2018-12-05T23:09:53.084Z,100545.63
2018-12-05T23:12:19.849Z,100542.45
2018-12-05T23:14:46.632Z,100549.81
2018-12-05T23:17:13.392Z,100547.45
2018-12-05T23:19:40.170Z,100560.03
2018-12-05T23:22:06.933Z,100558.23
2018-12-05T23:24:33.713Z,100548.44
2018-12-05T23:27:00.477Z,100550.09
2018-12-05T23:29:27.265Z,100539.30
2018-12-05T23:31:54.056Z,100525.78
2018-12-05T23:34:20.950Z,100521.55
2018-12-05T23:36:47.697Z,100523.93
2018-12-05T23:39:14.476Z,100513.94
2018-12-05T23:41:41.245Z,100513.09
2018-12-05T23:44:08.024Z,100510.86
2018-12-05T23:46:34.788Z,100502.14
2018-12-05T23:49:01.585Z,100494.07
2018-12-05T23:51:28.345Z,100498.05
2018-12-05T23:53:55.136Z,100491.91
2018-12-05T23:56:21.910Z,100484.16
2018-12-05T23:58:48.694Z,100472.53
